Terminal Aerodrome Forecast
Issued by NWS Milwaukee/Sullivan, WI

Home | Current Version | Previous Version | Text Only | Print | Product List | Glossary On
Versions: 1 2 3 4 5 6 7 8 9 10 11 12 13 14 15 16 17 18 19 20 21 22 23 24 25 26 27 28 29 30 31 32 33 34 35 36 37 38 39 40 41 42 43 44 45 46 47 48 49 50
303
FTUS43 KMKX 302322
TAFMSN
TAF
KMSN 302322Z 0100/0124 06014G23KT 6SM -SHRA OVC008
     FM010300 07014G23KT 5SM SHRA OVC005
     FM010600 09008KT 3SM -SHRA BR OVC003
     FM010800 12006KT 3SM BR OVC003
     FM011000 15005KT 1/4SM FG VCSH OVC003
     FM011200 19006KT 2SM BR VCSH OVC008
     FM011300 19007KT 3SM -SHRA BR OVC015
     FM011500 19009KT 6SM -SHRA OVC008
     FM011600 19010KT 6SM -SHRA OVC010
     FM012200 22012G21KT 5SM -SHRA OVC015=

USA.gov is the U.S. government's official web portal to all federal, state and local government web resources and services.